Time;durP1;ratioP1;P1;durP2;ratioP2;P2;SDS_P1;SDS_P2;PMS_P1;PMS_P2;Temp;Humidity;BMP_temperature;BMP_pressure;BME280_temperature;BME280_humidity;BME280_pressure;Samples;Min_cycle;Max_cycle;Signal;HPM_P1;HPM_P2
2023/11/12 00:01:53;;;;;;;2.13;1.20;;;22.30;53.40;;;;;;5016136;28;20110;-72
2023/11/12 00:04:19;;;;;;;1.52;1.00;;;22.30;53.40;;;;;;5017704;28;20030;-72
2023/11/12 00:06:45;;;;;;;1.50;1.00;;;22.30;53.40;;;;;;5020425;28;20026;-72
2023/11/12 00:09:11;;;;;;;1.38;0.90;;;22.20;53.40;;;;;;5018588;28;20029;-72
2023/11/12 00:11:38;;;;;;;1.75;1.10;;;22.20;53.40;;;;;;5018711;28;20032;-72
2023/11/12 00:14:04;;;;;;;2.30;1.20;;;22.20;53.50;;;;;;5017280;28;20017;-72
2023/11/12 00:16:30;;;;;;;1.90;1.10;;;22.20;53.50;;;;;;5016927;28;20037;-72
2023/11/12 00:18:56;;;;;;;1.58;0.98;;;22.20;53.50;;;;;;5017641;28;20034;-72
2023/11/12 00:21:24;;;;;;;1.42;0.98;;;22.20;53.50;;;;;;5032688;28;20084;-71
2023/11/12 00:23:51;;;;;;;1.60;1.10;;;22.10;53.50;;;;;;5016165;28;20386;-69
2023/11/12 00:26:17;;;;;;;2.05;1.10;;;22.10;53.50;;;;;;5019488;28;20029;-69
2023/11/12 00:28:43;;;;;;;1.77;1.10;;;22.10;53.50;;;;;;5017846;28;20037;-68
2023/11/12 00:31:09;;;;;;;2.30;1.17;;;22.10;53.50;;;;;;5020002;28;20453;-68
2023/11/12 00:33:34;;;;;;;1.85;1.00;;;22.10;53.60;;;;;;5016996;28;20032;-69
2023/11/12 00:36:00;;;;;;;1.90;1.00;;;22.10;53.60;;;;;;5020585;28;20445;-69
2023/11/12 00:38:25;;;;;;;1.70;0.93;;;22.00;53.50;;;;;;5020913;28;20109;-69
2023/11/12 00:40:53;;;;;;;1.65;1.00;;;22.00;53.60;;;;;;5020120;28;20512;-69
2023/11/12 00:43:20;;;;;;;1.40;1.00;;;22.00;53.60;;;;;;5024279;28;20473;-68
2023/11/12 00:45:46;;;;;;;2.13;1.20;;;22.00;53.60;;;;;;5020821;28;20021;-69
2023/11/12 00:48:11;;;;;;;2.03;1.05;;;22.00;53.60;;;;;;5019283;28;20097;-68
2023/11/12 00:50:37;;;;;;;1.38;0.98;;;21.90;53.60;;;;;;5021868;28;20125;-69
2023/11/12 00:53:03;;;;;;;1.67;1.08;;;22.00;54.20;;;;;;5021593;28;20018;-71
2023/11/12 00:55:28;;;;;;;2.05;1.00;;;21.90;53.60;;;;;;5021051;28;20025;-71
2023/11/12 00:57:54;;;;;;;1.50;1.00;;;21.90;53.70;;;;;;5021437;28;20057;-71
2023/11/12 01:00:19;;;;;;;1.75;1.30;;;21.90;53.70;;;;;;5020966;28;20033;-71
2023/11/12 01:02:45;;;;;;;2.05;1.20;;;21.90;53.70;;;;;;5017950;28;20109;-69
2023/11/12 01:05:11;;;;;;;2.65;1.10;;;21.90;53.80;;;;;;5021548;28;20870;-69
2023/11/12 01:07:36;;;;;;;1.52;1.00;;;21.80;53.70;;;;;;5018803;28;20025;-69
2023/11/12 01:10:03;;;;;;;1.63;1.00;;;21.80;53.70;;;;;;5022532;28;20022;-69
2023/11/12 01:12:29;;;;;;;2.13;1.10;;;21.80;53.70;;;;;;5022822;28;20044;-68
2023/11/12 01:14:55;;;;;;;1.70;1.00;;;21.80;53.80;;;;;;5022892;28;20025;-68
2023/11/12 01:17:20;;;;;;;1.45;0.98;;;21.80;53.80;;;;;;5016969;28;20470;-69
2023/11/12 01:19:46;;;;;;;1.88;1.00;;;21.80;53.80;;;;;;5022387;28;20046;-70
2023/11/12 01:22:12;;;;;;;1.38;1.00;;;21.70;53.80;;;;;;5020515;28;20034;-69
2023/11/12 01:24:37;;;;;;;1.85;1.02;;;21.70;53.80;;;;;;5019462;28;20041;-69
2023/11/12 01:27:04;;;;;;;2.33;1.00;;;21.70;53.80;;;;;;5021402;28;20034;-69
2023/11/12 01:29:30;;;;;;;1.75;1.00;;;21.70;53.80;;;;;;5016074;28;20477;-69
2023/11/12 01:31:56;;;;;;;1.42;1.00;;;21.70;53.80;;;;;;5022319;28;20029;-71
2023/11/12 01:34:22;;;;;;;1.35;1.00;;;21.70;53.80;;;;;;5019201;28;20496;-69
2023/11/12 01:36:48;;;;;;;1.58;0.98;;;21.70;53.90;;;;;;5019360;28;20032;-69
2023/11/12 01:39:14;;;;;;;1.65;0.90;;;21.60;53.90;;;;;;5020770;28;20030;-69
2023/11/12 01:41:39;;;;;;;1.95;1.05;;;21.60;53.90;;;;;;5019543;28;20109;-69
2023/11/12 01:44:05;;;;;;;1.65;0.93;;;21.60;53.90;;;;;;5021549;28;20037;-69
2023/11/12 01:46:33;;;;;;;1.63;0.93;;;21.60;53.90;;;;;;5018455;28;20576;-69
2023/11/12 01:48:59;;;;;;;1.55;0.90;;;21.60;54.00;;;;;;5019557;28;20064;-69
2023/11/12 01:51:26;;;;;;;1.65;1.00;;;21.60;54.00;;;;;;5021089;28;20565;-69
2023/11/12 01:53:53;;;;;;;1.30;1.00;;;21.60;54.00;;;;;;5018401;28;20025;-69
2023/11/12 01:56:20;;;;;;;2.35;1.20;;;21.50;54.00;;;;;;5016987;28;20034;-69
2023/11/12 01:58:49;;;;;;;1.60;0.90;;;21.50;54.50;;;;;;5021173;28;20033;-69
2023/11/12 02:01:15;;;;;;;1.83;1.17;;;21.50;54.00;;;;;;5018093;28;20037;-69
2023/11/12 02:03:42;;;;;;;1.90;1.05;;;21.50;54.00;;;;;;5013660;28;20030;-69
2023/11/12 02:06:11;;;;;;;1.40;0.90;;;21.50;54.10;;;;;;5018099;28;20029;-68
2023/11/12 02:08:40;;;;;;;2.15;1.30;;;21.50;54.10;;;;;;5018727;28;20030;-69
2023/11/12 02:11:09;;;;;;;2.22;1.35;;;21.50;54.10;;;;;;5020158;28;20077;-69
2023/11/12 02:13:41;;;;;;;2.15;1.00;;;21.40;54.10;;;;;;5019291;28;20029;-72
2023/11/12 02:16:07;;;;;;;1.73;1.10;;;21.40;54.10;;;;;;5021967;28;20029;-71
2023/11/12 02:18:32;;;;;;;2.05;1.00;;;21.40;54.10;;;;;;5018152;28;20189;-71
2023/11/12 02:20:58;;;;;;;1.02;0.80;;;21.40;54.10;;;;;;5018530;28;20102;-72
2023/11/12 02:23:24;;;;;;;2.10;1.00;;;21.40;54.10;;;;;;5019088;28;20034;-71
2023/11/12 02:25:51;;;;;;;1.17;0.80;;;21.40;54.10;;;;;;5018028;28;20034;-71
2023/11/12 02:28:18;;;;;;;1.30;0.80;;;21.40;54.20;;;;;;5018825;28;20371;-71
2023/11/12 02:30:45;;;;;;;2.00;1.08;;;21.30;54.10;;;;;;5018204;28;20044;-71
2023/11/12 02:33:11;;;;;;;1.25;1.00;;;21.30;54.20;;;;;;5015963;28;20453;-71
2023/11/12 02:35:42;;;;;;;1.60;1.00;;;21.40;54.20;;;;;;5020539;28;20568;-71
2023/11/12 02:38:10;;;;;;;1.90;1.00;;;21.30;54.20;;;;;;5018672;28;20100;-71
2023/11/12 02:40:36;;;;;;;1.55;1.00;;;21.30;54.20;;;;;;5018569;28;20091;-71
2023/11/12 02:43:03;;;;;;;1.27;1.00;;;21.30;54.20;;;;;;5018897;28;20596;-71
2023/11/12 02:45:29;;;;;;;1.48;1.00;;;21.30;54.30;;;;;;5019365;28;20040;-71
2023/11/12 02:47:56;;;;;;;1.42;0.93;;;21.30;54.30;;;;;;4998213;28;20026;-71
2023/11/12 02:50:32;;;;;;;2.10;1.00;;;21.20;54.30;;;;;;5018812;28;20496;-71
2023/11/12 02:53:03;;;;;;;1.77;1.00;;;21.30;54.30;;;;;;5034348;28;20029;-72
2023/11/12 02:55:30;;;;;;;1.55;0.90;;;21.20;54.30;;;;;;5018794;28;20020;-71
2023/11/12 02:57:56;;;;;;;1.20;0.90;;;21.20;54.30;;;;;;5017598;28;20025;-71
2023/11/12 03:00:22;;;;;;;1.50;0.90;;;21.20;54.30;;;;;;5000952;28;20036;-71
2023/11/12 03:02:48;;;;;;;1.40;0.88;;;21.20;54.40;;;;;;5003918;28;20481;-71
2023/11/12 03:05:14;;;;;;;1.50;0.93;;;21.20;54.40;;;;;;5017897;28;20021;-71
2023/11/12 03:07:41;;;;;;;1.55;1.00;;;21.20;54.30;;;;;;5020348;28;20485;-71
2023/11/12 03:10:08;;;;;;;1.75;1.08;;;21.20;54.40;;;;;;5019670;28;20022;-72
2023/11/12 03:12:38;;;;;;;1.30;0.88;;;21.20;54.40;;;;;;5017472;28;20022;-71
2023/11/12 03:15:08;;;;;;;1.50;0.90;;;21.10;54.40;;;;;;5019756;28;20458;-69
2023/11/12 03:17:34;;;;;;;;;;;21.10;54.40;;;;;;5002358;28;20025;-69
2023/11/12 03:20:00;;;;;;;1.55;1.00;;;21.10;54.40;;;;;;5017118;28;19908;-69
2023/11/12 03:22:26;;;;;;;1.25;0.80;;;21.10;54.40;;;;;;5017258;28;20065;-70
2023/11/12 03:24:52;;;;;;;1.40;0.80;;;21.10;54.40;;;;;;5019422;28;20072;-69
2023/11/12 03:27:19;;;;;;;1.83;1.15;;;21.10;54.40;;;;;;5018256;28;20056;-68
2023/11/12 03:29:45;;;;;;;1.30;0.90;;;21.10;54.40;;;;;;5013278;28;20520;-69
2023/11/12 03:32:11;;;;;;;1.20;0.93;;;21.10;54.40;;;;;;5032962;28;20083;-69
2023/11/12 03:34:37;;;;;;;1.40;0.82;;;21.10;54.50;;;;;;5017175;28;20466;-69
2023/11/12 03:37:03;;;;;;;1.73;0.90;;;21.10;54.50;;;;;;5003035;28;20370;-69
2023/11/12 03:39:29;;;;;;;1.40;1.00;;;21.00;54.50;;;;;;5019217;28;20520;-69
2023/11/12 03:41:54;;;;;;;1.85;1.00;;;21.00;54.50;;;;;;5020535;28;20108;-69
2023/11/12 03:44:20;;;;;;;1.35;1.00;;;21.00;54.50;;;;;;5014198;28;20030;-69
2023/11/12 03:46:45;;;;;;;1.67;1.00;;;21.00;54.50;;;;;;5003182;28;20033;-69
2023/11/12 03:49:11;;;;;;;1.40;0.90;;;21.00;54.50;;;;;;5019617;28;20473;-68
2023/11/12 03:51:37;;;;;;;1.33;0.90;;;21.00;54.50;;;;;;4998946;28;20041;-68
2023/11/12 03:54:03;;;;;;;1.50;1.00;;;21.00;55.00;;;;;;5018457;28;20025;-69
2023/11/12 03:56:30;;;;;;;1.60;1.10;;;21.00;54.60;;;;;;5018596;28;20044;-70
2023/11/12 03:58:57;;;;;;;1.02;0.80;;;21.00;54.60;;;;;;5019287;28;20021;-69
2023/11/12 04:01:23;;;;;;;2.25;1.10;;;21.00;54.60;;;;;;5018943;28;20033;-69
2023/11/12 04:03:49;;;;;;;1.27;0.80;;;20.90;54.60;;;;;;4999403;28;20032;-69
2023/11/12 04:06:16;;;;;;;1.63;0.93;;;20.90;54.60;;;;;;5034079;28;20029;-69
2023/11/12 04:08:42;;;;;;;1.40;0.80;;;20.90;54.60;;;;;;5018917;28;20528;-69
2023/11/12 04:11:08;;;;;;;1.10;0.90;;;20.90;54.70;;;;;;5020175;28;20029;-69
2023/11/12 04:13:33;;;;;;;1.77;1.10;;;20.90;54.60;;;;;;5021341;28;20036;-69
2023/11/12 04:15:59;;;;;;;1.52;0.90;;;20.90;54.70;;;;;;5022482;28;20128;-69
2023/11/12 04:18:25;;;;;;;1.70;1.13;;;20.90;54.70;;;;;;5021091;28;20018;-69
2023/11/12 04:20:51;;;;;;;1.08;0.80;;;20.80;54.60;;;;;;5020256;28;20526;-69
2023/11/12 04:23:16;;;;;;;1.45;0.90;;;20.90;54.70;;;;;;5022631;28;20056;-71
2023/11/12 04:25:44;;;;;;;1.40;0.82;;;20.90;54.70;;;;;;5020374;28;20044;-72
2023/11/12 04:28:09;;;;;;;1.30;0.93;;;20.90;54.70;;;;;;5022680;28;20034;-71
2023/11/12 04:30:35;;;;;;;1.95;0.98;;;20.90;54.70;;;;;;5021665;28;20041;-71
2023/11/12 04:33:01;;;;;;;0.93;0.80;;;20.80;54.70;;;;;;5021555;28;20025;-69
2023/11/12 04:35:26;;;;;;;1.17;0.82;;;20.80;54.70;;;;;;5020553;28;20045;-70
2023/11/12 04:37:52;;;;;;;1.42;0.80;;;20.80;54.70;;;;;;5022047;28;20025;-69
2023/11/12 04:40:17;;;;;;;1.63;0.80;;;20.80;54.70;;;;;;5020737;28;20075;-70
2023/11/12 04:42:43;;;;;;;1.30;0.93;;;20.80;54.70;;;;;;5023302;28;20025;-69
2023/11/12 04:45:10;;;;;;;1.15;0.95;;;20.80;54.70;;;;;;5037347;28;20037;-69
2023/11/12 04:47:36;;;;;;;1.13;0.73;;;20.80;54.80;;;;;;5021768;28;20121;-70
2023/11/12 04:50:01;;;;;;;1.48;0.90;;;20.80;54.80;;;;;;5013710;28;20180;-69
2023/11/12 04:52:27;;;;;;;0.85;0.80;;;20.80;54.80;;;;;;5020330;28;20061;-70
2023/11/12 04:54:53;;;;;;;1.58;0.90;;;20.80;54.80;;;;;;5020793;28;20022;-70
2023/11/12 04:57:19;;;;;;;1.08;0.80;;;20.80;54.80;;;;;;5021511;28;20414;-70
2023/11/12 04:59:45;;;;;;;0.98;0.73;;;20.70;54.70;;;;;;5002059;28;20026;-69
2023/11/12 05:02:12;;;;;;;1.40;0.90;;;20.70;54.80;;;;;;5019358;28;20038;-69
2023/11/12 05:04:38;;;;;;;1.08;0.77;;;20.70;54.80;;;;;;5020172;28;20033;-69
2023/11/12 05:07:05;;;;;;;1.63;0.90;;;20.70;54.80;;;;;;5003923;28;20110;-69
2023/11/12 05:09:30;;;;;;;1.17;0.88;;;20.70;54.90;;;;;;5021216;28;20028;-69
2023/11/12 05:11:56;;;;;;;1.33;0.90;;;20.70;55.40;;;;;;5021050;28;20034;-70
2023/11/12 05:14:22;;;;;;;1.33;0.90;;;20.70;55.00;;;;;;5023575;28;20387;-69
2023/11/12 05:16:47;;;;;;;1.20;0.80;;;20.70;54.90;;;;;;5020283;28;20076;-69
2023/11/12 05:19:13;;;;;;;1.08;0.80;;;20.70;55.00;;;;;;5030470;28;21042;-69
2023/11/12 05:21:47;;;;;;;1.10;0.80;;;20.60;54.90;;;;;;5019048;28;20034;-70
2023/11/12 05:24:13;;;;;;;1.17;0.80;;;20.60;55.00;;;;;;5021032;28;20067;-70
2023/11/12 05:26:40;;;;;;;1.00;0.70;;;20.60;55.00;;;;;;5019644;28;20034;-70
2023/11/12 05:29:06;;;;;;;0.75;0.70;;;20.60;55.00;;;;;;5021808;28;20068;-69
2023/11/12 05:31:32;;;;;;;1.05;0.80;;;20.60;55.10;;;;;;5021465;28;20058;-69
2023/11/12 05:33:59;;;;;;;1.10;0.90;;;20.60;55.10;;;;;;5021267;28;20079;-69
2023/11/12 05:36:24;;;;;;;1.17;0.80;;;20.60;55.10;;;;;;5019651;28;20029;-69
2023/11/12 05:38:50;;;;;;;1.05;0.82;;;20.60;55.10;;;;;;5018753;28;20466;-69
2023/11/12 05:41:16;;;;;;;1.17;0.80;;;20.60;55.10;;;;;;5020109;28;20033;-69
2023/11/12 05:43:41;;;;;;;1.15;0.80;;;20.60;55.10;;;;;;5019283;28;20030;-71
2023/11/12 05:46:08;;;;;;;1.17;0.90;;;20.60;55.10;;;;;;5017550;28;20026;-71
2023/11/12 05:48:33;;;;;;;1.65;0.90;;;20.50;55.10;;;;;;5036993;28;20034;-71
2023/11/12 05:51:00;;;;;;;1.30;0.90;;;20.50;55.10;;;;;;5017972;28;20038;-71
2023/11/12 05:53:26;;;;;;;1.38;0.88;;;20.50;55.10;;;;;;5020609;28;20064;-71
2023/11/12 05:55:51;;;;;;;0.88;0.80;;;20.50;55.20;;;;;;5019502;28;20473;-71
2023/11/12 05:58:17;;;;;;;1.25;0.80;;;20.50;55.20;;;;;;5019051;28;20022;-71
2023/11/12 06:00:43;;;;;;;0.95;0.82;;;20.50;55.20;;;;;;5020457;28;20100;-71
2023/11/12 06:03:08;;;;;;;1.02;0.80;;;20.50;55.30;;;;;;5019257;28;20022;-71
2023/11/12 06:05:34;;;;;;;1.52;0.90;;;20.50;55.20;;;;;;5017863;28;20041;-71
2023/11/12 06:08:02;;;;;;;1.13;0.80;;;20.50;55.30;;;;;;5021278;28;20418;-71
2023/11/12 06:10:29;;;;;;;1.40;0.90;;;20.50;55.30;;;;;;5033139;28;20032;-71
2023/11/12 06:12:55;;;;;;;1.45;1.00;;;20.50;55.30;;;;;;5019913;28;20025;-71
2023/11/12 06:15:25;;;;;;;0.95;0.80;;;20.50;55.30;;;;;;5018497;28;20366;-70
2023/11/12 06:17:52;;;;;;;1.83;0.80;;;20.50;55.30;;;;;;4988075;28;20115;-70
2023/11/12 06:20:18;;;;;;;1.08;0.80;;;20.50;55.30;;;;;;5001179;28;20025;-70
2023/11/12 06:22:43;;;;;;;1.10;0.88;;;20.40;55.30;;;;;;5003336;28;20033;-69
2023/11/12 06:25:11;;;;;;;1.10;0.85;;;20.50;55.30;;;;;;5018313;28;20133;-69
2023/11/12 06:27:38;;;;;;;1.00;0.80;;;20.40;55.30;;;;;;5018861;28;20076;-69
2023/11/12 06:30:04;;;;;;;1.50;0.90;;;20.40;55.30;;;;;;5018182;28;20026;-70
2023/11/12 06:32:30;;;;;;;1.02;0.77;;;20.40;55.30;;;;;;5034412;28;20064;-69
2023/11/12 06:34:55;;;;;;;1.08;0.80;;;20.40;55.30;;;;;;5019039;28;20057;-69
2023/11/12 06:37:21;;;;;;;1.15;0.77;;;20.40;55.30;;;;;;5020431;28;20018;-69
2023/11/12 06:39:47;;;;;;;1.13;0.80;;;20.40;55.30;;;;;;5002392;28;20017;-70
2023/11/12 06:42:12;;;;;;;0.82;0.70;;;20.40;55.30;;;;;;5017370;28;20068;-70
2023/11/12 06:44:38;;;;;;;1.35;0.85;;;20.40;55.30;;;;;;5021689;28;20033;-71
2023/11/12 06:47:05;;;;;;;1.40;0.82;;;20.40;55.30;;;;;;5020459;28;20474;-71
2023/11/12 06:49:31;;;;;;;1.02;0.80;;;20.40;55.30;;;;;;5016534;28;20033;-71
2023/11/12 06:51:58;;;;;;;1.63;0.80;;;20.40;55.30;;;;;;5015958;28;20022;-72
2023/11/12 06:54:24;;;;;;;1.40;0.80;;;20.40;55.30;;;;;;5018556;28;20022;-69
2023/11/12 06:56:50;;;;;;;1.27;0.80;;;20.40;55.30;;;;;;5020434;28;20017;-68
2023/11/12 06:59:16;;;;;;;0.88;0.73;;;20.40;55.30;;;;;;5022673;28;20040;-69
2023/11/12 07:01:41;;;;;;;1.05;0.80;;;20.40;55.30;;;;;;5018588;28;20080;-68
2023/11/12 07:04:10;;;;;;;1.20;0.70;;;20.40;55.40;;;;;;5022177;28;20397;-69
2023/11/12 07:06:36;;;;;;;0.80;0.70;;;20.40;55.40;;;;;;5017422;28;20880;-68
2023/11/12 07:09:02;;;;;;;0.98;0.68;;;20.30;55.30;;;;;;5018267;28;20043;-69
2023/11/12 07:11:28;;;;;;;0.90;0.68;;;20.40;55.40;;;;;;4999760;28;20130;-69
2023/11/12 07:13:53;;;;;;;1.35;0.90;;;20.30;55.40;;;;;;5019898;28;20452;-69
2023/11/12 07:16:20;;;;;;;1.60;0.90;;;20.40;55.40;;;;;;5020678;28;20385;-69
2023/11/12 07:18:46;;;;;;;1.33;0.80;;;20.30;55.40;;;;;;5018679;28;20014;-68
2023/11/12 07:21:12;;;;;;;1.00;0.80;;;20.40;55.40;;;;;;5016978;28;20030;-69
2023/11/12 07:23:38;;;;;;;0.82;0.70;;;20.30;55.40;;;;;;5017921;28;20033;-68
2023/11/12 07:26:05;;;;;;;1.25;0.75;;;20.30;55.90;;;;;;5005245;28;20049;-69
2023/11/12 07:28:31;;;;;;;1.25;0.85;;;20.30;55.40;;;;;;5015941;28;20493;-69
2023/11/12 07:30:56;;;;;;;1.08;0.80;;;20.30;55.40;;;;;;5017722;28;20163;-69
2023/11/12 07:33:22;;;;;;;1.48;1.00;;;20.30;55.40;;;;;;5017823;28;20022;-69
2023/11/12 07:35:49;;;;;;;1.20;0.77;;;20.30;55.40;;;;;;5017484;28;20025;-69
2023/11/12 07:38:15;;;;;;;1.00;0.65;;;20.30;55.40;;;;;;5018274;28;20152;-70
2023/11/12 07:40:44;;;;;;;0.90;0.70;;;20.30;55.40;;;;;;5019345;28;20132;-69
2023/11/12 07:43:09;;;;;;;1.23;0.80;;;20.30;55.50;;;;;;5015149;28;20057;-69
2023/11/12 07:45:35;;;;;;;1.05;0.80;;;20.30;55.50;;;;;;5017038;28;20065;-70
2023/11/12 07:48:01;;;;;;;0.90;0.80;;;20.30;55.50;;;;;;5016602;28;20648;-69
2023/11/12 07:50:26;;;;;;;1.15;0.80;;;20.30;55.50;;;;;;5014698;28;20022;-68
2023/11/12 07:52:52;;;;;;;1.58;0.90;;;20.30;55.50;;;;;;5017270;28;20117;-69
2023/11/12 07:55:18;;;;;;;1.30;0.90;;;20.30;55.50;;;;;;5018357;28;20026;-69
2023/11/12 07:57:43;;;;;;;1.15;0.90;;;20.30;55.50;;;;;;5033611;28;20472;-69
2023/11/12 08:00:13;;;;;;;1.20;0.80;;;20.30;55.80;;;;;;5018287;28;20030;-69
2023/11/12 08:02:39;;;;;;;1.38;0.88;;;20.20;55.50;;;;;;5016808;28;20030;-68
2023/11/12 08:05:10;;;;;;;1.63;0.90;;;20.20;55.50;;;;;;5031133;28;20509;-69
2023/11/12 08:07:35;;;;;;;1.40;0.90;;;20.20;55.50;;;;;;5017757;28;20500;-69
2023/11/12 08:10:05;;;;;;;0.90;0.80;;;20.20;55.50;;;;;;5017865;28;20097;-69
2023/11/12 08:12:31;;;;;;;1.00;0.80;;;20.20;55.50;;;;;;5018051;28;20053;-69
2023/11/12 08:14:57;;;;;;;1.35;0.90;;;20.20;55.60;;;;;;5018329;28;20033;-68
2023/11/12 08:17:23;;;;;;;1.55;0.90;;;20.20;55.60;;;;;;5018017;28;20096;-67
2023/11/12 08:19:48;;;;;;;0.90;0.73;;;20.20;55.60;;;;;;5019455;28;20065;-67
2023/11/12 08:22:14;;;;;;;1.88;1.00;;;20.20;55.70;;;;;;5016394;28;20040;-72
2023/11/12 08:24:40;;;;;;;1.65;1.00;;;20.20;55.80;;;;;;5034086;28;20079;-73
2023/11/12 08:27:07;;;;;;;1.70;1.05;;;20.20;55.80;;;;;;5019286;28;20064;-71
2023/11/12 08:29:34;;;;;;;1.40;0.90;;;20.30;56.00;;;;;;5021616;28;20414;-71
2023/11/12 08:32:00;;;;;;;1.33;0.85;;;20.30;56.10;;;;;;5018732;28;20470;-71
2023/11/12 08:34:26;;;;;;;1.10;0.80;;;20.30;56.20;;;;;;5019513;28;20024;-69
2023/11/12 08:36:52;;;;;;;1.20;0.80;;;20.30;56.30;;;;;;4999412;28;20456;-71
2023/11/12 08:39:18;;;;;;;1.17;0.85;;;20.40;56.50;;;;;;5018037;28;20394;-72
2023/11/12 08:41:46;;;;;;;1.33;0.88;;;20.40;56.50;;;;;;5031967;28;20025;-70
2023/11/12 08:44:13;;;;;;;1.23;0.80;;;20.40;56.60;;;;;;5001360;28;20037;-74
2023/11/12 08:46:39;;;;;;;1.20;0.80;;;20.40;56.60;;;;;;5018567;28;20026;-74
2023/11/12 08:49:06;;;;;;;1.40;0.80;;;20.50;56.80;;;;;;5017727;28;20033;-75
2023/11/12 08:51:35;;;;;;;1.00;0.80;;;20.50;56.70;;;;;;5016601;28;20481;-74
2023/11/12 08:54:01;;;;;;;1.10;0.70;;;20.60;56.80;;;;;;5015715;28;20413;-72
2023/11/12 08:56:29;;;;;;;1.13;0.80;;;20.60;56.70;;;;;;5016807;28;20043;-71
2023/11/12 08:58:56;;;;;;;1.20;0.90;;;20.70;56.80;;;;;;5021855;28;20025;-71
2023/11/12 09:01:21;;;;;;;1.58;0.77;;;20.70;56.80;;;;;;5021233;28;20031;-71
2023/11/12 09:03:47;;;;;;;0.90;0.70;;;20.70;56.80;;;;;;5019679;28;20033;-71
2023/11/12 09:06:13;;;;;;;0.88;0.70;;;20.70;56.90;;;;;;5017449;28;20029;-71
2023/11/12 09:08:38;;;;;;;1.00;0.77;;;20.80;56.90;;;;;;5022338;28;20076;-73
2023/11/12 09:11:05;;;;;;;1.00;0.70;;;20.80;56.90;;;;;;5021150;28;20037;-68
2023/11/12 09:13:31;;;;;;;0.85;0.70;;;20.90;57.10;;;;;;5020097;28;20358;-71
2023/11/12 09:15:57;;;;;;;1.23;0.70;;;20.90;57.10;;;;;;5022234;28;20018;-73
2023/11/12 09:18:24;;;;;;;1.13;0.73;;;20.90;57.00;;;;;;5021242;28;20053;-72
2023/11/12 09:20:55;;;;;;;0.90;0.65;;;21.00;57.00;;;;;;5019982;28;20033;-71
2023/11/12 09:23:21;;;;;;;0.85;0.70;;;21.00;57.10;;;;;;5021125;28;20018;-72
2023/11/12 09:25:49;;;;;;;0.88;0.75;;;21.00;57.00;;;;;;4990090;28;20367;-72
2023/11/12 09:28:14;;;;;;;0.80;0.65;;;21.10;57.00;;;;;;5021445;28;20362;-70
2023/11/12 09:30:40;;;;;;;1.65;0.70;;;21.10;57.00;;;;;;5021940;28;20022;-72
2023/11/12 09:33:06;;;;;;;1.17;0.70;;;21.20;57.00;;;;;;5023264;28;20030;-72
2023/11/12 09:35:32;;;;;;;1.58;0.93;;;21.20;56.50;;;;;;5022476;28;20097;-69
2023/11/12 09:37:57;;;;;;;1.88;1.20;;;21.20;56.10;;;;;;5020373;28;20029;-69
2023/11/12 09:40:23;;;;;;;1.85;1.17;;;21.20;55.80;;;;;;5038235;28;20052;-69
2023/11/12 09:42:53;;;;;;;2.25;1.20;;;21.10;55.60;;;;;;5019398;28;20137;-69
2023/11/12 09:45:19;;;;;;;;;;;21.10;55.50;;;;;;5005054;28;20425;-68
2023/11/12 09:47:54;;;;;;;2.03;1.10;;;21.10;55.40;;;;;;5002128;28;20284;-68
2023/11/12 09:50:24;;;;;;;1.40;1.00;;;21.10;55.30;;;;;;5019500;28;20393;-68
2023/11/12 09:52:53;;;;;;;1.88;1.17;;;21.10;55.30;;;;;;5016135;28;20125;-68
2023/11/12 09:55:20;;;;;;;1.70;1.08;;;21.10;55.30;;;;;;5020970;28;20021;-68
2023/11/12 09:57:47;;;;;;;2.05;1.23;;;21.10;55.20;;;;;;4984832;28;20087;-69
2023/11/12 10:00:13;;;;;;;2.97;1.23;;;21.10;55.30;;;;;;5018889;28;20379;-68
2023/11/12 10:02:40;;;;;;;1.55;1.00;;;21.00;55.20;;;;;;5022333;28;20084;-68
2023/11/12 10:05:14;;;;;;;1.60;1.17;;;21.00;55.20;;;;;;5019654;28;20033;-69
2023/11/12 10:07:41;;;;;;;2.35;1.48;;;21.00;55.30;;;;;;5017888;28;20116;-69
2023/11/12 10:10:26;;;;;;;2.00;1.20;;;21.00;55.30;;;;;;5018268;28;20471;-69
2023/11/12 10:12:55;;;;;;;2.40;1.20;;;21.00;55.20;;;;;;5001636;28;20047;-67
2023/11/12 10:15:23;;;;;;;2.10;1.27;;;21.00;55.20;;;;;;5019792;28;20063;-67
2023/11/12 10:17:51;;;;;;;2.83;1.20;;;20.90;55.20;;;;;;5021308;28;20120;-68
2023/11/12 10:20:20;;;;;;;1.90;1.17;;;21.00;55.30;;;;;;5020685;28;20053;-69
2023/11/12 10:22:46;;;;;;;1.75;1.00;;;20.90;55.30;;;;;;5000884;28;20558;-68
2023/11/12 10:25:12;;;;;;;1.60;1.13;;;20.90;55.30;;;;;;5019337;28;20469;-68
2023/11/12 10:27:52;;;;;;;1.63;1.17;;;20.90;55.30;;;;;;5018990;28;20029;-73
2023/11/12 10:30:20;;;;;;;1.75;1.10;;;20.90;55.40;;;;;;5002191;28;20031;-73
2023/11/12 10:32:46;;;;;;;2.05;1.10;;;20.90;55.40;;;;;;5019621;28;20972;-73
2023/11/12 10:35:24;;;;;;;2.10;1.20;;;20.90;55.40;;;;;;5018886;28;20108;-73
2023/11/12 10:37:59;;;;;;;2.00;1.10;;;20.80;55.40;;;;;;5018434;28;20036;-75
2023/11/12 10:40:25;;;;;;;3.08;1.30;;;20.80;55.50;;;;;;5034677;28;20018;-72
2023/11/12 10:43:00;;;;;;;1.80;1.08;;;20.80;55.50;;;;;;5034012;28;20029;-72
2023/11/12 10:45:26;;;;;;;2.00;1.20;;;20.80;55.50;;;;;;5018802;28;20033;-73
2023/11/12 10:47:56;;;;;;;2.63;1.40;;;20.80;55.50;;;;;;5002772;28;20036;-73
2023/11/12 10:50:25;;;;;;;;;;;20.80;55.50;;;;;;5020438;28;20030;-73
2023/11/12 10:52:54;;;;;;;1.88;1.20;;;20.80;55.60;;;;;;5018043;28;19920;-73
2023/11/12 10:55:24;;;;;;;2.50;1.30;;;20.70;55.50;;;;;;5019724;28;20470;-74
2023/11/12 10:57:51;;;;;;;1.90;1.15;;;20.70;55.60;;;;;;5017187;28;20053;-70
2023/11/12 11:00:20;;;;;;;2.35;1.40;;;20.70;55.60;;;;;;5018541;28;20022;-70
2023/11/12 11:02:47;;;;;;;2.33;1.42;;;20.70;55.60;;;;;;5034612;28;20040;-70
2023/11/12 11:05:13;;;;;;;2.40;1.38;;;20.70;55.60;;;;;;5016227;28;20038;-71
2023/11/12 11:07:39;;;;;;;2.17;1.20;;;20.70;55.60;;;;;;4982739;28;20022;-71
2023/11/12 11:10:09;;;;;;;2.70;1.35;;;20.70;55.70;;;;;;4997018;28;20037;-69
2023/11/12 11:12:36;;;;;;;2.80;1.40;;;20.70;55.70;;;;;;5032363;28;20021;-69
2023/11/12 11:15:38;;;;;;;2.55;1.33;;;20.60;55.60;;;;;;5018233;28;20022;-69
2023/11/12 11:18:04;;;;;;;2.60;1.58;;;20.70;55.70;;;;;;5018647;28;20050;-69
2023/11/12 11:23:52;;;;;;;2.30;1.20;;;20.70;56.00;;;;;;5016422;28;20510;-69
2023/11/12 11:26:32;;;;;;;1.58;1.10;;;20.70;56.10;;;;;;5015276;28;20501;-71
2023/11/12 11:29:09;;;;;;;2.38;1.20;;;20.70;56.10;;;;;;5015896;28;20053;-72
2023/11/12 11:31:36;;;;;;;3.22;1.20;;;20.80;56.10;;;;;;5033790;28;20025;-72
2023/11/12 11:34:03;;;;;;;1.83;1.08;;;20.80;56.10;;;;;;5018461;28;20084;-72
2023/11/12 11:36:32;;;;;;;2.42;1.52;;;20.80;56.30;;;;;;4999608;28;20061;-73
2023/11/12 11:39:17;;;;;;;2.13;1.30;;;20.90;56.20;;;;;;5017323;28;20032;-72
2023/11/12 11:41:45;;;;;;;2.83;1.40;;;20.90;56.20;;;;;;5017772;28;20036;-72
2023/11/12 11:44:42;;;;;;;1.88;1.25;;;20.90;56.10;;;;;;5019234;28;20457;-72
2023/11/12 11:47:14;;;;;;;2.28;1.25;;;20.90;56.20;;;;;;5033831;28;20026;-73
2023/11/12 11:49:45;;;;;;;2.75;1.30;;;21.00;56.20;;;;;;5033606;28;20065;-71
2023/11/12 11:52:29;;;;;;;2.88;1.60;;;21.00;56.30;;;;;;4997874;28;20500;-71
2023/11/12 11:55:08;;;;;;;2.30;1.30;;;21.00;56.30;;;;;;5017810;28;20466;-70
2023/11/12 11:57:46;;;;;;;2.30;1.27;;;21.00;56.20;;;;;;5018506;28;20528;-70
2023/11/12 12:00:15;;;;;;;2.25;1.30;;;21.10;56.30;;;;;;5019400;28;20030;-70
2023/11/12 12:02:42;;;;;;;1.90;1.20;;;21.10;56.20;;;;;;5020023;28;20041;-70
2023/11/12 12:05:08;;;;;;;2.47;1.20;;;21.10;56.30;;;;;;5017702;28;20025;-71
2023/11/12 12:07:36;;;;;;;2.38;1.40;;;21.20;56.40;;;;;;5017516;28;20033;-71
2023/11/12 12:10:03;;;;;;;2.25;1.40;;;21.20;56.30;;;;;;5020124;28;20681;-70
2023/11/12 12:12:29;;;;;;;2.53;1.27;;;21.20;56.30;;;;;;5019842;28;20458;-72
2023/11/12 12:14:55;;;;;;;1.88;1.20;;;21.30;56.30;;;;;;5021090;28;20423;-71
2023/11/12 12:17:21;;;;;;;2.35;1.30;;;21.30;56.30;;;;;;5019166;28;20104;-71
2023/11/12 12:19:54;;;;;;;1.60;1.00;;;21.30;56.20;;;;;;5012141;28;20114;-68
2023/11/12 12:22:24;;;;;;;2.08;1.20;;;21.40;56.30;;;;;;5014307;28;20047;-74
2023/11/12 12:24:52;;;;;;;2.40;1.30;;;21.40;56.20;;;;;;5016822;28;20045;-72
2023/11/12 12:27:18;;;;;;;3.30;1.30;;;21.50;56.30;;;;;;5016697;28;20026;-72
2023/11/12 12:29:47;;;;;;;2.20;1.15;;;21.50;56.00;;;;;;5018858;28;20412;-72
2023/11/12 12:32:18;;;;;;;1.92;1.30;;;21.50;56.00;;;;;;5020971;28;20113;-72
2023/11/12 12:34:55;;;;;;;2.70;1.38;;;21.40;55.90;;;;;;5006628;28;20030;-72
2023/11/12 12:37:29;;;;;;;2.13;1.20;;;21.40;55.90;;;;;;5020819;28;20085;-72
2023/11/12 12:40:00;;;;;;;2.63;1.15;;;21.40;56.00;;;;;;5021257;28;20496;-72
2023/11/12 12:42:27;;;;;;;2.70;1.30;;;21.40;56.00;;;;;;5021852;28;20432;-72
2023/11/12 12:44:54;;;;;;;2.60;1.20;;;21.40;56.00;;;;;;5020336;28;20029;-72
2023/11/12 12:47:38;;;;;;;2.42;1.30;;;21.40;56.00;;;;;;5022156;28;20128;-72
2023/11/12 12:50:22;;;;;;;3.20;1.20;;;21.40;56.10;;;;;;5021059;28;20506;-72
2023/11/12 12:52:51;;;;;;;2.25;1.10;;;21.30;56.10;;;;;;5011802;28;20148;-72